createdAt,value
2023-09-22T00:00:46.411Z,0.00
2023-09-22T00:01:46.394Z,0.00
2023-09-22T00:02:47.007Z,0.00
2023-09-22T00:03:46.827Z,0.00
2023-09-22T00:04:46.414Z,0.00
2023-09-22T00:05:46.354Z,0.00
2023-09-22T00:06:46.374Z,0.00
2023-09-22T00:07:46.415Z,0.00
2023-09-22T00:08:46.352Z,0.00
2023-09-22T00:09:46.410Z,0.00
2023-09-22T00:10:46.341Z,0.00
2023-09-22T00:11:46.332Z,0.00
2023-09-22T00:12:46.411Z,0.00
2023-09-22T00:13:46.456Z,0.00
2023-09-22T00:14:46.333Z,0.00
2023-09-22T00:15:46.345Z,0.00
2023-09-22T00:16:46.375Z,0.00
2023-09-22T00:17:46.309Z,0.00
2023-09-22T00:18:46.314Z,0.00
2023-09-22T00:19:46.415Z,0.00
2023-09-22T00:20:46.299Z,0.00
2023-09-22T00:21:46.309Z,0.00
2023-09-22T00:22:46.303Z,0.00
2023-09-22T00:23:46.439Z,0.00
2023-09-22T00:24:46.316Z,0.00
2023-09-22T00:25:47.398Z,0.00
2023-09-22T00:26:46.277Z,0.00
2023-09-22T00:27:46.305Z,0.00
2023-09-22T00:28:46.269Z,0.00
2023-09-22T00:29:46.260Z,0.00
2023-09-22T00:30:46.404Z,0.00
2023-09-22T00:31:46.371Z,0.00
2023-09-22T00:32:46.353Z,0.00
2023-09-22T00:33:46.624Z,0.00
2023-09-22T00:34:46.241Z,0.00
2023-09-22T00:35:46.336Z,0.00
2023-09-22T00:36:46.341Z,0.00
2023-09-22T00:37:46.233Z,0.00
2023-09-22T00:38:46.218Z,0.00
2023-09-22T00:39:46.249Z,0.00
2023-09-22T00:40:46.219Z,0.00
2023-09-22T00:41:46.201Z,0.00
2023-09-22T00:42:46.256Z,0.00
2023-09-22T00:43:46.478Z,0.00
2023-09-22T00:44:46.214Z,0.00
2023-09-22T00:45:46.255Z,0.00
2023-09-22T00:46:46.233Z,0.00
2023-09-22T00:47:46.208Z,0.00
2023-09-22T00:48:46.207Z,0.00
2023-09-22T00:49:46.177Z,0.00
2023-09-22T00:50:46.188Z,0.00
2023-09-22T00:51:46.342Z,0.00
2023-09-22T00:52:46.174Z,0.00
2023-09-22T00:53:46.386Z,0.00
2023-09-22T00:54:46.199Z,0.00
2023-09-22T00:55:46.151Z,0.00
2023-09-22T00:56:46.144Z,0.00
2023-09-22T00:57:46.176Z,0.00
2023-09-22T00:58:46.144Z,0.00
2023-09-22T00:59:46.147Z,0.00
2023-09-22T01:00:46.154Z,0.00
2023-09-22T01:01:46.166Z,0.00
2023-09-22T01:02:46.216Z,0.00
2023-09-22T01:03:46.511Z,0.00
2023-09-22T01:04:46.159Z,0.00
2023-09-22T01:05:46.117Z,0.00
2023-09-22T01:06:46.186Z,0.00
2023-09-22T01:07:46.210Z,0.00
2023-09-22T01:08:46.104Z,0.00
2023-09-22T01:09:46.152Z,0.00
2023-09-22T01:10:46.140Z,0.00
2023-09-22T01:11:46.096Z,0.00
2023-09-22T01:12:46.128Z,0.00
2023-09-22T01:13:46.275Z,0.00
2023-09-22T01:14:46.075Z,0.00
2023-09-22T01:15:46.118Z,0.00
2023-09-22T01:16:46.114Z,0.00
2023-09-22T01:17:46.115Z,0.00
2023-09-22T01:18:46.095Z,0.00
2023-09-22T01:19:46.045Z,0.00
2023-09-22T01:20:46.052Z,0.00
2023-09-22T01:21:46.198Z,0.00
2023-09-22T01:22:46.049Z,0.00
2023-09-22T01:23:46.214Z,0.00
2023-09-22T01:24:46.080Z,0.00
2023-09-22T01:25:46.022Z,0.00
2023-09-22T01:26:46.022Z,0.00
2023-09-22T01:27:46.050Z,0.00
2023-09-22T01:28:46.001Z,0.00
2023-09-22T01:29:46.000Z,0.00
2023-09-22T01:30:46.034Z,0.00
2023-09-22T01:31:46.020Z,0.00
2023-09-22T01:32:46.041Z,0.00
2023-09-22T01:33:46.253Z,0.00
2023-09-22T01:34:45.989Z,0.00
2023-09-22T01:35:45.982Z,0.00
2023-09-22T01:36:46.038Z,0.00
2023-09-22T01:37:45.966Z,0.00
2023-09-22T01:38:46.335Z,0.00
2023-09-22T01:39:46.020Z,0.00
2023-09-22T01:40:45.959Z,0.00
2023-09-22T01:41:45.947Z,0.00
2023-09-22T01:42:45.992Z,0.00
2023-09-22T01:43:45.940Z,0.00
2023-09-22T01:44:45.964Z,0.00
2023-09-22T01:45:46.144Z,0.00
2023-09-22T01:46:45.938Z,0.00
2023-09-22T01:47:45.939Z,0.00
2023-09-22T01:48:46.144Z,0.00
2023-09-22T01:49:45.908Z,0.00
2023-09-22T01:50:45.904Z,0.00
2023-09-22T01:51:45.964Z,0.00
2023-09-22T01:52:45.894Z,0.00
2023-09-22T01:54:26.699Z,0.00
2023-09-22T01:55:26.802Z,0.00
2023-09-22T01:56:26.626Z,0.00
2023-09-22T01:57:26.686Z,0.00
2023-09-22T01:58:26.623Z,0.00
2023-09-22T01:59:26.624Z,0.00
2023-09-22T02:00:26.639Z,0.00
2023-09-22T02:01:26.642Z,0.00
2023-09-22T02:02:26.624Z,0.00
2023-09-22T02:03:26.695Z,0.00
2023-09-22T02:04:26.758Z,0.00
2023-09-22T02:05:26.587Z,0.00
2023-09-22T02:06:26.617Z,0.00
2023-09-22T02:07:26.580Z,0.00
2023-09-22T02:08:26.581Z,0.00
2023-09-22T02:09:26.598Z,0.00
2023-09-22T02:10:26.570Z,0.00
2023-09-22T02:11:26.583Z,0.00
2023-09-22T02:12:26.580Z,0.00
2023-09-22T02:13:26.563Z,0.00
2023-09-22T02:14:26.551Z,0.00
2023-09-22T02:15:26.586Z,0.00
2023-09-22T02:16:26.591Z,0.00
2023-09-22T02:17:26.550Z,0.00
2023-09-22T02:18:26.574Z,0.00
2023-09-22T02:19:26.552Z,0.00
2023-09-22T02:20:26.534Z,0.00
2023-09-22T02:21:26.557Z,0.00
2023-09-22T02:22:26.517Z,0.00
2023-09-22T02:23:26.517Z,0.00
2023-09-22T02:24:26.536Z,0.00
2023-09-22T02:25:26.530Z,0.00
2023-09-22T02:26:26.494Z,0.00
2023-09-22T02:27:26.692Z,0.00
2023-09-22T02:28:26.483Z,0.00
2023-09-22T02:29:26.499Z,0.00
2023-09-22T02:30:26.563Z,0.00
2023-09-22T02:31:26.517Z,0.00
2023-09-22T02:32:26.494Z,0.00
2023-09-22T02:33:26.508Z,0.00
2023-09-22T02:34:26.469Z,0.00
2023-09-22T02:35:26.458Z,0.00
2023-09-22T02:36:26.490Z,0.00
2023-09-22T02:37:26.447Z,0.00
2023-09-22T02:38:26.442Z,0.00
2023-09-22T02:39:26.467Z,0.00
2023-09-22T02:40:26.438Z,0.00
2023-09-22T02:41:26.434Z,0.00
2023-09-22T02:42:26.482Z,0.00
2023-09-22T02:43:26.452Z,0.00
2023-09-22T02:44:26.417Z,0.00
2023-09-22T02:45:26.543Z,0.00
2023-09-22T02:46:26.486Z,0.00
2023-09-22T02:47:26.501Z,0.00
2023-09-22T02:48:26.428Z,0.00
2023-09-22T02:49:26.395Z,0.00
2023-09-22T02:50:26.397Z,0.00
2023-09-22T02:51:26.457Z,0.00
2023-09-22T02:52:26.385Z,0.00
2023-09-22T02:53:26.373Z,0.00
2023-09-22T02:54:26.413Z,0.00
2023-09-22T02:55:26.368Z,0.00
2023-09-22T02:56:26.362Z,0.00
2023-09-22T02:57:26.385Z,0.00
2023-09-22T02:58:26.349Z,0.00
2023-09-22T02:59:26.406Z,0.00
2023-09-22T03:00:26.371Z,0.00
2023-09-22T03:01:26.363Z,0.00
2023-09-22T03:02:26.355Z,0.00
2023-09-22T03:03:26.474Z,0.00
2023-09-22T03:04:26.318Z,0.00
2023-09-22T03:05:26.324Z,0.00
2023-09-22T03:06:26.331Z,0.00
2023-09-22T03:07:26.299Z,0.00
2023-09-22T03:08:26.304Z,0.00
2023-09-22T03:09:26.333Z,0.00
2023-09-22T03:10:26.304Z,0.00
2023-09-22T03:11:26.288Z,0.00
2023-09-22T03:12:26.288Z,0.00
2023-09-22T03:13:26.276Z,0.00
2023-09-22T03:14:26.279Z,0.00
2023-09-22T03:15:26.316Z,0.00
2023-09-22T03:16:26.334Z,0.00
2023-09-22T03:17:26.286Z,0.00
2023-09-22T03:18:26.273Z,0.00
2023-09-22T03:19:26.251Z,0.00
2023-09-22T03:20:26.236Z,0.00
2023-09-22T03:21:26.250Z,0.00
2023-09-22T03:22:26.227Z,0.00
2023-09-22T03:23:26.230Z,0.00
2023-09-22T03:24:26.250Z,0.00
2023-09-22T03:25:26.211Z,0.00
2023-09-22T03:26:26.214Z,0.00
2023-09-22T03:27:26.219Z,0.00
2023-09-22T03:28:26.201Z,0.00
2023-09-22T03:29:26.190Z,0.00
2023-09-22T03:30:26.248Z,0.00
2023-09-22T03:31:26.217Z,0.00
2023-09-22T03:32:26.220Z,0.00
2023-09-22T03:33:26.271Z,0.00
2023-09-22T03:34:26.173Z,0.00
2023-09-22T03:35:26.163Z,0.00
2023-09-22T03:36:26.225Z,0.00
2023-09-22T03:37:26.149Z,0.00
2023-09-22T03:38:26.152Z,0.00
2023-09-22T03:39:26.265Z,0.00
2023-09-22T03:40:26.149Z,0.00
2023-09-22T03:41:26.127Z,0.00
2023-09-22T03:42:26.210Z,0.00
2023-09-22T03:43:26.129Z,0.00
2023-09-22T03:44:26.118Z,0.00
2023-09-22T03:45:26.115Z,0.00
2023-09-22T03:46:26.160Z,0.00
2023-09-22T03:47:26.157Z,0.00
2023-09-22T03:48:26.120Z,0.00
2023-09-22T03:49:26.100Z,0.00
2023-09-22T03:50:26.090Z,0.00
2023-09-22T03:51:26.120Z,0.00
2023-09-22T03:52:26.102Z,0.00
2023-09-22T03:53:26.097Z,0.00
2023-09-22T03:54:26.111Z,0.00
2023-09-22T03:55:26.060Z,0.00
2023-09-22T03:56:26.057Z,0.00
2023-09-22T03:57:26.054Z,0.00
2023-09-22T03:58:26.043Z,0.00
2023-09-22T03:59:26.040Z,0.00
2023-09-22T04:01:26.204Z,0.00
2023-09-22T04:02:26.065Z,0.00
2023-09-22T04:03:26.161Z,0.00
2023-09-22T04:04:26.132Z,0.00
2023-09-22T04:05:26.037Z,0.00
2023-09-22T04:06:26.076Z,0.00
2023-09-22T04:07:26.040Z,0.00
2023-09-22T04:08:26.023Z,0.00
2023-09-22T04:09:26.009Z,0.00
2023-09-22T04:10:26.015Z,0.00
2023-09-22T04:11:25.980Z,0.00
2023-09-22T04:12:25.985Z,0.00
2023-09-22T04:13:25.970Z,0.00
2023-09-22T04:14:25.969Z,0.00
2023-09-22T04:15:25.999Z,0.00
2023-09-22T04:16:26.074Z,0.00
2023-09-22T04:17:26.090Z,0.00
2023-09-22T04:18:26.016Z,0.00
2023-09-22T04:19:25.965Z,0.00
2023-09-22T04:20:25.938Z,0.00
2023-09-22T04:21:25.960Z,0.00
2023-09-22T04:22:25.936Z,0.00
2023-09-22T04:23:25.933Z,0.00
2023-09-22T04:24:25.996Z,0.00
2023-09-22T04:25:25.924Z,0.00
2023-09-22T04:26:25.909Z,0.00
2023-09-22T04:27:25.912Z,0.00
2023-09-22T04:28:25.915Z,0.00
2023-09-22T04:29:25.893Z,0.00
2023-09-22T04:30:26.209Z,0.00
2023-09-22T04:31:26.024Z,0.00
2023-09-22T04:32:25.883Z,0.00
2023-09-22T04:33:25.885Z,0.00
2023-09-22T04:34:25.870Z,0.00
2023-09-22T04:35:25.937Z,0.00
2023-09-22T04:36:25.885Z,0.00
2023-09-22T04:37:25.854Z,0.00
2023-09-22T04:38:25.858Z,0.00
2023-09-22T04:39:25.876Z,0.00
2023-09-22T04:40:25.876Z,0.00
2023-09-22T04:41:25.836Z,0.00
2023-09-22T04:42:25.884Z,0.00
2023-09-22T04:43:25.825Z,0.00
2023-09-22T04:44:25.836Z,0.00
2023-09-22T04:45:25.853Z,0.00
2023-09-22T04:46:25.871Z,0.00
2023-09-22T04:47:25.867Z,0.00
2023-09-22T04:48:25.965Z,0.00
2023-09-22T04:49:25.823Z,0.00
2023-09-22T04:50:25.811Z,0.00
2023-09-22T04:51:25.886Z,0.00
2023-09-22T04:52:25.816Z,0.00
2023-09-22T04:53:25.814Z,0.00
2023-09-22T04:54:25.854Z,0.00
2023-09-22T04:55:25.787Z,0.00
2023-09-22T04:56:25.786Z,0.00
2023-09-22T04:57:25.873Z,0.00
2023-09-22T04:58:25.781Z,0.00
2023-09-22T04:59:25.776Z,0.00
2023-09-22T05:00:25.951Z,0.00
2023-09-22T05:01:25.833Z,0.00
2023-09-22T05:02:25.809Z,0.00
2023-09-22T05:03:25.890Z,0.00
2023-09-22T05:04:26.010Z,0.00
2023-09-22T05:05:25.771Z,4.00
2023-09-22T05:06:25.820Z,4.00
2023-09-22T05:07:25.777Z,4.00
2023-09-22T05:08:25.773Z,0.00
2023-09-22T05:09:25.785Z,4.00
2023-09-22T05:10:25.765Z,4.00
2023-09-22T05:11:25.801Z,8.00
2023-09-22T05:12:25.756Z,4.00
2023-09-22T05:13:25.748Z,8.00
2023-09-22T05:14:25.763Z,8.00
2023-09-22T05:15:25.845Z,12.00
2023-09-22T05:16:25.760Z,12.00
2023-09-22T05:17:25.783Z,16.00
2023-09-22T05:18:25.758Z,12.00
2023-09-22T05:19:25.787Z,12.00
2023-09-22T05:20:25.757Z,12.00
2023-09-22T05:21:25.888Z,16.00
2023-09-22T05:22:25.738Z,16.00
2023-09-22T05:23:25.843Z,20.00
2023-09-22T05:24:25.761Z,24.00
2023-09-22T05:25:25.726Z,28.00
2023-09-22T05:26:25.903Z,32.00
2023-09-22T05:27:25.758Z,32.00
2023-09-22T05:28:25.726Z,36.00
2023-09-22T05:29:25.727Z,40.00
2023-09-22T05:30:25.779Z,44.00
2023-09-22T05:31:25.928Z,44.00
2023-09-22T05:32:25.780Z,48.00
2023-09-22T05:33:25.830Z,52.00
2023-09-22T05:34:25.716Z,52.00
2023-09-22T05:35:25.736Z,52.00
2023-09-22T05:36:25.728Z,56.00
2023-09-22T05:37:25.734Z,60.00
2023-09-22T05:38:25.714Z,64.00
2023-09-22T05:39:25.797Z,68.00
2023-09-22T05:40:25.714Z,76.00
2023-09-22T05:41:25.699Z,80.00
2023-09-22T05:42:25.833Z,84.00
2023-09-22T05:43:25.705Z,96.00
2023-09-22T05:44:25.698Z,100.00
2023-09-22T05:45:25.722Z,92.00
2023-09-22T05:46:25.762Z,88.00
2023-09-22T05:47:25.730Z,84.00
2023-09-22T05:48:25.992Z,80.00
2023-09-22T05:49:25.694Z,76.00
2023-09-22T05:50:25.706Z,84.00
2023-09-22T05:51:25.761Z,92.00
2023-09-22T05:52:25.690Z,108.00
2023-09-22T05:53:25.700Z,124.00
2023-09-22T05:54:25.699Z,136.00
2023-09-22T05:55:25.707Z,136.00
2023-09-22T05:56:25.695Z,136.00
2023-09-22T05:57:25.699Z,128.00
2023-09-22T05:58:25.685Z,128.00
2023-09-22T05:59:25.702Z,136.00
2023-09-22T06:00:25.789Z,160.00
2023-09-22T06:01:25.716Z,176.00
2023-09-22T06:02:25.701Z,176.00
2023-09-22T06:03:25.705Z,168.00
2023-09-22T06:04:25.758Z,172.00
2023-09-22T06:05:25.698Z,172.00
2023-09-22T06:06:25.671Z,172.00
2023-09-22T06:07:25.671Z,168.00
2023-09-22T06:08:25.674Z,176.00
2023-09-22T06:09:25.673Z,180.00
2023-09-22T06:10:25.838Z,164.00
2023-09-22T06:11:25.689Z,184.00
2023-09-22T06:12:25.664Z,212.00
2023-09-22T06:13:25.668Z,224.00
2023-09-22T06:14:25.666Z,228.00
2023-09-22T06:15:25.674Z,212.00
2023-09-22T06:16:25.743Z,200.00
2023-09-22T06:17:25.681Z,204.00
2023-09-22T06:18:25.682Z,236.00
2023-09-22T06:19:25.673Z,244.00
2023-09-22T06:20:25.663Z,252.00
2023-09-22T06:21:25.658Z,268.00
2023-09-22T06:22:25.658Z,312.00
2023-09-22T06:23:25.658Z,308.00
2023-09-22T06:24:25.667Z,276.00
2023-09-22T06:25:25.658Z,288.00
2023-09-22T06:26:25.662Z,256.00
2023-09-22T06:27:25.672Z,248.00
2023-09-22T06:28:25.659Z,284.00
2023-09-22T06:29:25.703Z,296.00
2023-09-22T06:30:25.653Z,252.00
2023-09-22T06:31:25.675Z,244.00
2023-09-22T06:32:25.739Z,308.00
2023-09-22T06:33:25.649Z,308.00
2023-09-22T06:34:25.649Z,324.00
2023-09-22T06:35:25.656Z,344.00
2023-09-22T06:36:25.666Z,332.00
2023-09-22T06:37:25.663Z,316.00
2023-09-22T06:38:25.649Z,324.00
2023-09-22T06:39:25.645Z,344.00
2023-09-22T06:40:25.651Z,408.00
2023-09-22T06:41:25.644Z,424.00
2023-09-22T06:42:25.653Z,384.00
2023-09-22T06:43:25.728Z,364.00
2023-09-22T06:44:25.659Z,444.00
2023-09-22T06:45:25.687Z,580.00
2023-09-22T06:46:25.943Z,624.00
2023-09-22T06:47:25.645Z,660.00
2023-09-22T06:48:25.634Z,608.00
2023-09-22T06:49:25.651Z,504.00
2023-09-22T06:50:25.631Z,456.00
2023-09-22T06:51:25.645Z,496.00
2023-09-22T06:52:25.632Z,520.00
2023-09-22T06:53:25.683Z,568.00
2023-09-22T06:54:25.630Z,624.00
2023-09-22T06:55:25.632Z,640.00
2023-09-22T06:56:39.202Z,496.00
2023-09-22T06:57:25.631Z,408.00
2023-09-22T06:58:26.301Z,556.00
2023-09-22T06:59:25.749Z,512.00
2023-09-22T07:00:25.626Z,360.00
2023-09-22T07:01:25.723Z,432.00
2023-09-22T07:02:25.810Z,444.00
2023-09-22T07:03:26.052Z,436.00
2023-09-22T07:04:25.758Z,456.00
2023-09-22T07:05:25.687Z,484.00
2023-09-22T07:06:25.624Z,476.00
2023-09-22T07:07:25.641Z,472.00
2023-09-22T07:08:25.644Z,476.00
2023-09-22T07:09:25.618Z,428.00
2023-09-22T07:10:25.626Z,392.00
2023-09-22T07:11:25.620Z,460.00
2023-09-22T07:12:25.629Z,508.00
2023-09-22T07:13:25.607Z,480.00
2023-09-22T07:14:25.608Z,440.00
2023-09-22T07:15:25.627Z,436.00
2023-09-22T07:16:25.761Z,472.00
2023-09-22T07:17:25.649Z,536.00
2023-09-22T07:18:25.608Z,552.00
2023-09-22T07:19:25.612Z,572.00
2023-09-22T07:20:25.653Z,580.00
2023-09-22T07:21:25.763Z,532.00
2023-09-22T07:22:25.749Z,476.00
2023-09-22T07:23:25.649Z,448.00
2023-09-22T07:24:25.607Z,468.00
2023-09-22T07:25:25.606Z,512.00
2023-09-22T07:26:25.612Z,556.00
2023-09-22T07:27:25.604Z,548.00
2023-09-22T07:28:25.601Z,588.00
2023-09-22T07:29:25.601Z,620.00
2023-09-22T07:30:25.596Z,588.00
2023-09-22T07:31:25.677Z,592.00
2023-09-22T07:32:25.730Z,604.00
2023-09-22T07:33:25.593Z,584.00
2023-09-22T07:34:25.599Z,572.00
2023-09-22T07:35:25.619Z,568.00
2023-09-22T07:36:25.595Z,548.00
2023-09-22T07:37:25.755Z,516.00
2023-09-22T07:38:25.652Z,528.00
2023-09-22T07:39:25.586Z,568.00
2023-09-22T07:40:25.597Z,616.00
2023-09-22T07:41:42.038Z,672.00
2023-09-22T07:42:25.587Z,660.00
2023-09-22T07:43:25.614Z,640.00
2023-09-22T07:44:25.588Z,596.00
2023-09-22T07:45:25.624Z,572.00
2023-09-22T07:46:25.812Z,512.00
2023-09-22T07:47:25.662Z,464.00
2023-09-22T07:48:25.589Z,476.00
2023-09-22T07:49:25.584Z,524.00
2023-09-22T07:50:25.587Z,544.00
2023-09-22T07:51:25.591Z,536.00
2023-09-22T07:52:25.581Z,488.00
2023-09-22T07:53:25.579Z,448.00
2023-09-22T07:54:25.582Z,460.00
2023-09-22T07:55:25.605Z,532.00
2023-09-22T07:56:25.578Z,528.00
2023-09-22T07:57:25.584Z,460.00
2023-09-22T07:58:25.603Z,428.00
2023-09-22T07:59:25.577Z,492.00
2023-09-22T08:00:25.572Z,488.00
2023-09-22T08:01:25.676Z,420.00
2023-09-22T08:02:25.630Z,324.00
2023-09-22T08:03:25.696Z,316.00
2023-09-22T08:04:25.645Z,380.00
2023-09-22T08:05:25.580Z,500.00
2023-09-22T08:06:25.572Z,528.00
2023-09-22T08:07:25.580Z,568.00
2023-09-22T08:08:25.582Z,528.00
2023-09-22T08:09:25.570Z,500.00
2023-09-22T08:10:25.570Z,476.00
2023-09-22T08:11:25.598Z,460.00
2023-09-22T08:12:25.572Z,532.00
2023-09-22T08:13:25.564Z,628.00
2023-09-22T08:14:34.275Z,676.00
2023-09-22T08:15:25.572Z,648.00
2023-09-22T08:16:25.645Z,596.00
2023-09-22T08:17:25.668Z,540.00
2023-09-22T08:18:25.578Z,508.00
2023-09-22T08:19:25.593Z,488.00
2023-09-22T08:20:25.571Z,552.00
2023-09-22T08:21:25.573Z,596.00
2023-09-22T08:22:25.579Z,564.00
2023-09-22T08:23:38.373Z,516.00
2023-09-22T08:24:25.570Z,492.00
2023-09-22T08:25:25.610Z,460.00
2023-09-22T08:26:25.571Z,420.00
2023-09-22T08:27:25.557Z,432.00
2023-09-22T08:28:25.564Z,376.00
2023-09-22T08:29:25.572Z,368.00
2023-09-22T08:30:25.549Z,360.00
2023-09-22T08:31:25.558Z,372.00
2023-09-22T08:32:25.624Z,364.00
2023-09-22T08:33:25.589Z,368.00
2023-09-22T08:34:25.613Z,352.00
2023-09-22T08:35:25.596Z,356.00
2023-09-22T08:36:25.547Z,352.00
2023-09-22T08:37:25.568Z,356.00
2023-09-22T08:38:25.549Z,372.00
2023-09-22T08:39:25.573Z,360.00
2023-09-22T08:40:25.545Z,348.00
2023-09-22T08:41:25.549Z,344.00
2023-09-22T08:42:25.875Z,340.00
2023-09-22T08:43:25.624Z,340.00
2023-09-22T08:44:25.551Z,444.00
2023-09-22T08:45:25.743Z,412.00
2023-09-22T08:46:25.629Z,364.00
2023-09-22T08:47:25.588Z,620.00
2023-09-22T08:48:25.645Z,964.00
2023-09-22T08:49:25.622Z,808.00
2023-09-22T08:50:25.544Z,880.00
2023-09-22T08:51:25.561Z,968.00
2023-09-22T08:52:25.550Z,644.00
2023-09-22T08:53:25.544Z,440.00
2023-09-22T08:54:25.533Z,988.00
2023-09-22T08:55:25.742Z,748.00
2023-09-22T08:56:25.540Z,780.00
2023-09-22T08:57:25.541Z,1000.00
2023-09-22T08:58:25.539Z,1008.00
2023-09-22T08:59:25.532Z,1112.00
2023-09-22T09:00:25.537Z,736.00
2023-09-22T09:01:25.772Z,716.00
2023-09-22T09:02:25.679Z,696.00
2023-09-22T09:03:25.693Z,564.00
2023-09-22T09:04:25.742Z,928.00
2023-09-22T09:05:25.544Z,864.00
2023-09-22T09:06:25.536Z,1084.00
2023-09-22T09:07:25.548Z,896.00
2023-09-22T09:08:25.577Z,1068.00
2023-09-22T09:09:25.535Z,792.00
2023-09-22T09:10:25.523Z,964.00
2023-09-22T09:11:25.537Z,748.00
2023-09-22T09:12:25.528Z,800.00
2023-09-22T09:13:25.547Z,980.00
2023-09-22T09:14:25.520Z,924.00
2023-09-22T09:15:25.529Z,680.00
2023-09-22T09:16:25.550Z,540.00
2023-09-22T09:17:25.568Z,620.00
2023-09-22T09:18:25.540Z,656.00
2023-09-22T09:19:25.529Z,472.00
2023-09-22T09:20:25.523Z,420.00
2023-09-22T09:21:25.529Z,480.00
2023-09-22T09:22:25.520Z,492.00
2023-09-22T09:23:25.534Z,496.00
2023-09-22T09:24:25.519Z,804.00
2023-09-22T09:25:25.526Z,904.00
2023-09-22T09:26:25.527Z,848.00
2023-09-22T09:27:25.518Z,420.00
2023-09-22T09:28:25.538Z,360.00
2023-09-22T09:29:25.515Z,632.00
2023-09-22T09:30:25.529Z,892.00
2023-09-22T09:31:25.595Z,876.00
2023-09-22T09:32:25.605Z,608.00
2023-09-22T09:33:25.508Z,772.00
2023-09-22T09:34:25.506Z,664.00
2023-09-22T09:35:35.659Z,620.00
2023-09-22T09:36:25.505Z,752.00
2023-09-22T09:37:25.510Z,608.00
2023-09-22T09:38:25.519Z,520.00
2023-09-22T09:39:25.542Z,584.00
2023-09-22T09:40:25.506Z,620.00
2023-09-22T09:41:25.503Z,620.00
2023-09-22T09:42:25.613Z,592.00
2023-09-22T09:43:25.544Z,556.00
2023-09-22T09:44:25.514Z,616.00
2023-09-22T09:45:25.517Z,644.00
2023-09-22T09:46:25.572Z,464.00
2023-09-22T09:47:29.336Z,416.00
2023-09-22T09:48:25.510Z,388.00
2023-09-22T09:49:25.508Z,340.00
2023-09-22T09:50:25.497Z,432.00
2023-09-22T09:51:25.503Z,380.00
2023-09-22T09:52:25.508Z,404.00
2023-09-22T09:53:25.504Z,464.00
2023-09-22T09:54:25.511Z,440.00
2023-09-22T09:55:25.623Z,456.00
2023-09-22T09:56:25.497Z,516.00
2023-09-22T09:57:25.489Z,480.00
2023-09-22T09:58:25.495Z,656.00
2023-09-22T09:59:25.507Z,604.00
2023-09-22T10:00:25.483Z,308.00
2023-09-22T10:01:25.538Z,256.00
2023-09-22T10:02:25.544Z,304.00
2023-09-22T10:03:25.596Z,384.00
2023-09-22T10:04:25.504Z,476.00
2023-09-22T10:05:25.469Z,448.00
2023-09-22T10:06:29.555Z,480.00
2023-09-22T10:07:25.491Z,648.00
2023-09-22T10:08:25.499Z,500.00
2023-09-22T10:09:25.475Z,332.00
2023-09-22T10:10:25.469Z,552.00
2023-09-22T10:11:25.476Z,640.00
2023-09-22T10:12:25.460Z,752.00
2023-09-22T10:13:25.462Z,724.00
2023-09-22T10:14:25.455Z,796.00
2023-09-22T10:15:25.447Z,708.00
2023-09-22T10:16:25.550Z,520.00
2023-09-22T10:17:25.513Z,392.00
2023-09-22T10:18:25.445Z,292.00
2023-09-22T10:19:25.439Z,300.00
2023-09-22T10:20:25.434Z,376.00
2023-09-22T10:21:25.425Z,392.00
2023-09-22T10:22:28.639Z,352.00
2023-09-22T10:23:25.428Z,336.00
2023-09-22T10:24:25.765Z,292.00
2023-09-22T10:25:31.585Z,296.00
2023-09-22T10:26:25.414Z,388.00
2023-09-22T10:27:25.429Z,444.00
2023-09-22T10:28:25.424Z,464.00
2023-09-22T10:29:25.413Z,564.00
2023-09-22T10:30:25.455Z,568.00
2023-09-22T10:31:25.476Z,416.00
2023-09-22T10:32:25.525Z,384.00
2023-09-22T10:33:25.401Z,488.00
2023-09-22T10:34:25.396Z,456.00
2023-09-22T10:35:25.397Z,344.00
2023-09-22T10:36:25.386Z,272.00
2023-09-22T10:37:25.391Z,260.00
2023-09-22T10:38:25.378Z,296.00
2023-09-22T10:39:25.377Z,344.00
2023-09-22T10:40:25.380Z,484.00
2023-09-22T10:41:25.366Z,572.00
2023-09-22T10:42:25.366Z,564.00
2023-09-22T10:43:25.393Z,516.00
2023-09-22T10:44:25.361Z,516.00
2023-09-22T10:45:25.361Z,512.00
2023-09-22T10:46:25.414Z,520.00
2023-09-22T10:47:25.372Z,552.00
2023-09-22T10:48:25.371Z,468.00
2023-09-22T10:49:25.352Z,368.00
2023-09-22T10:50:25.346Z,388.00
2023-09-22T10:51:25.397Z,416.00
2023-09-22T10:52:25.337Z,432.00
2023-09-22T10:53:25.336Z,536.00
2023-09-22T10:54:25.323Z,564.00
2023-09-22T10:55:25.354Z,452.00
2023-09-22T10:56:25.325Z,460.00
2023-09-22T10:57:25.329Z,524.00
2023-09-22T10:58:25.345Z,656.00
2023-09-22T10:59:25.485Z,740.00
2023-09-22T11:00:25.329Z,660.00
2023-09-22T11:01:25.353Z,528.00
2023-09-22T11:02:25.370Z,464.00
2023-09-22T11:03:25.353Z,464.00
2023-09-22T11:04:25.383Z,420.00
2023-09-22T11:05:25.449Z,392.00
2023-09-22T11:06:25.386Z,376.00
2023-09-22T11:07:25.333Z,416.00
2023-09-22T11:08:25.293Z,400.00
2023-09-22T11:09:25.292Z,424.00
2023-09-22T11:10:25.338Z,352.00
2023-09-22T11:11:25.281Z,432.00
2023-09-22T11:12:25.288Z,580.00
2023-09-22T11:13:25.440Z,600.00
2023-09-22T11:14:25.654Z,452.00
2023-09-22T11:15:25.317Z,336.00
2023-09-22T11:16:25.325Z,292.00
2023-09-22T11:17:25.306Z,280.00
2023-09-22T11:18:25.287Z,268.00
2023-09-22T11:19:25.350Z,276.00
2023-09-22T11:20:25.278Z,240.00
2023-09-22T11:21:25.289Z,280.00
2023-09-22T11:22:25.300Z,284.00
2023-09-22T11:23:25.261Z,388.00
2023-09-22T11:24:25.267Z,500.00
2023-09-22T11:25:25.280Z,412.00
2023-09-22T11:26:25.265Z,384.00
2023-09-22T11:27:25.261Z,420.00
2023-09-22T11:28:27.418Z,548.00
2023-09-22T11:29:25.253Z,500.00
2023-09-22T11:30:25.262Z,528.00
2023-09-22T11:31:25.348Z,568.00
2023-09-22T11:32:25.344Z,492.00
2023-09-22T11:33:25.346Z,476.00
2023-09-22T11:34:25.332Z,628.00
2023-09-22T11:35:26.270Z,716.00
2023-09-22T11:36:25.258Z,688.00
2023-09-22T11:37:25.253Z,604.00
2023-09-22T11:38:25.253Z,620.00
2023-09-22T11:39:25.291Z,716.00
2023-09-22T11:40:25.351Z,716.00
2023-09-22T11:41:25.263Z,784.00
2023-09-22T11:42:25.364Z,668.00
2023-09-22T11:43:25.297Z,460.00
2023-09-22T11:44:25.274Z,512.00
2023-09-22T11:45:29.325Z,544.00
2023-09-22T11:46:25.394Z,604.00
2023-09-22T11:47:25.327Z,596.00
2023-09-22T11:48:25.237Z,476.00
2023-09-22T11:49:25.306Z,484.00
2023-09-22T11:50:25.241Z,552.00
2023-09-22T11:51:25.233Z,604.00
2023-09-22T11:52:25.257Z,568.00
2023-09-22T11:53:26.659Z,480.00
2023-09-22T11:54:25.225Z,460.00
2023-09-22T11:55:25.258Z,488.00
2023-09-22T11:56:25.240Z,500.00
2023-09-22T11:57:25.233Z,480.00
2023-09-22T11:58:25.306Z,400.00
2023-09-22T11:59:25.225Z,312.00
2023-09-22T12:00:25.234Z,324.00
2023-09-22T12:01:25.281Z,332.00
2023-09-22T12:02:25.321Z,356.00
2023-09-22T12:03:25.306Z,364.00
2023-09-22T12:04:25.274Z,352.00
2023-09-22T12:05:25.232Z,308.00
2023-09-22T12:06:25.230Z,376.00
2023-09-22T12:07:25.273Z,420.00
2023-09-22T12:08:25.241Z,396.00
2023-09-22T12:09:25.222Z,308.00
2023-09-22T12:10:25.239Z,372.00
2023-09-22T12:11:25.212Z,472.00
2023-09-22T12:12:25.215Z,496.00
2023-09-22T12:13:25.238Z,304.00
2023-09-22T12:14:25.321Z,288.00
2023-09-22T12:15:25.208Z,272.00
2023-09-22T12:16:25.248Z,264.00
2023-09-22T12:17:25.248Z,240.00
2023-09-22T12:18:25.211Z,252.00
2023-09-22T12:19:25.262Z,260.00
2023-09-22T12:20:25.209Z,224.00
2023-09-22T12:21:25.198Z,220.00
2023-09-22T12:22:25.210Z,244.00
2023-09-22T12:23:25.190Z,300.00
2023-09-22T12:24:25.196Z,332.00
2023-09-22T12:25:25.212Z,268.00
2023-09-22T12:26:25.191Z,264.00
2023-09-22T12:27:25.180Z,356.00
2023-09-22T12:28:25.197Z,464.00
2023-09-22T12:29:25.203Z,500.00
2023-09-22T12:30:25.180Z,440.00
2023-09-22T12:31:25.314Z,364.00
2023-09-22T12:32:25.312Z,320.00
2023-09-22T12:33:25.213Z,280.00
2023-09-22T12:34:25.226Z,244.00
2023-09-22T12:35:25.195Z,252.00
2023-09-22T12:36:25.179Z,288.00
2023-09-22T12:37:25.200Z,312.00
2023-09-22T12:38:25.163Z,332.00
2023-09-22T12:39:25.146Z,364.00
2023-09-22T12:40:25.185Z,392.00
2023-09-22T12:41:25.153Z,420.00
2023-09-22T12:42:25.152Z,408.00
2023-09-22T12:43:25.192Z,424.00
2023-09-22T12:44:25.138Z,500.00
2023-09-22T12:45:25.137Z,588.00
2023-09-22T12:46:25.198Z,524.00
2023-09-22T12:47:25.156Z,448.00
2023-09-22T12:48:25.139Z,356.00
2023-09-22T12:49:25.138Z,328.00
2023-09-22T12:50:25.132Z,312.00
2023-09-22T12:51:25.169Z,376.00